• Join FlightAware (Why Join?)
  • Login
  • US Flag 
08:17AM EDT


 

Airport Tracker/Info


-or-


 

Live Flight TrackerFlight Track Log ✈ RPA4928 ✈ 11-May-2013 ✈ KEWR - KRDU

Flight Track Log - Related Links

Times and Time Zones

All times are in EDT time to prevent confusion due to time zone crossing. See the RPA4928 flight status page for this flight to view local times or setup timezone preferences in your user account.

Time Position Orientation Groundspeed Altitude Reporting Facility
EDT Latitude Longitude Course Direction KTS MPH feet Rate Location/Type
08:53PM 40.6478 -74.1819 194° South 190 219 1,900  Level New York Center
08:54PM 40.5944 -74.2256 212° Southwest 224 258 3,100 1,680 Climbing New York Center
08:55PM 40.4661 -74.2406 157° South  Level FlightAware Approximate
08:55PM 40.5472 -74.2725 217° Southwest 232 267 5,300  Level New York Center
08:56PM 40.3914 -74.1998 157° South  Level FlightAware Approximate
08:56PM 40.4667 -74.2500 168° South 267 307 6,000  Level New York TRACON
08:57PM 40.3167 -74.1591 157° South  Level FlightAware Approximate
08:57PM 40.4000 -74.2167 159° South 257 296 6,000  Level New York TRACON
08:58PM 40.2391 -74.1703 194° South  Level FlightAware Approximate
08:58PM 40.3833 -74.1167 102° East 275 316 6,100  Level New York TRACON
08:59PM 40.3414 -74.0386 125° Southeast 281 323 7,000 1,500 Climbing New York Center
09:00PM 40.2886 -73.9872 143° Southeast 294 338 8,900 960 Climbing New York Center
09:01PM 40.2206 -73.9650 166° South 257 296 9,000  Climbing New York Center
09:02PM 40.1750 -74.0308 228° Southwest 227 261 9,000 300 Level New York Center
09:03PM 40.1272 -74.0908 224° Southwest 239 275 9,700 1,200 Climbing New York Center
09:04PM 40.0772 -74.1644 228° Southwest 245 282 11,500 1,680 Climbing New York Center
09:05PM 40.0275 -74.2244 223° Southwest 245 282 13,000 1,500 Climbing New York Center
09:06PM 39.9758 -74.2842 222° Southwest 245 282 14,500 1,320 Climbing New York Center
09:07PM 39.9264 -74.3303 216° Southwest 245 282 15,700 1,140 Climbing New York Center
09:07PM 39.8803 -74.3694 213° Southwest 248 285 16,500 1,080 Climbing Washington Center
09:08PM 39.8244 -74.4244 217° Southwest 248 285 17,600 1,140 Climbing Washington Center
09:10PM 39.7750 -74.4844 223° Southwest 248 285 18,900 1,080 Climbing Washington Center
09:11PM 39.7278 -74.5528 228° Southwest 248 285 19,800 900 Climbing Washington Center
09:11PM 39.6783 -74.6156 224° Southwest 248 285 20,700 780 Climbing Washington Center
09:13PM 39.6392 -74.6700 227° Southwest 248 285 21,400 840 Climbing Washington Center
09:14PM 39.5856 -74.7381 224° Southwest 248 285 22,500 960 Climbing Washington Center
09:14PM 39.5381 -74.8003 225° Southwest 248 285 23,300 720 Climbing Washington Center
09:15PM 39.4925 -74.8600 225° Southwest 248 285 24,000 300 Climbing Washington Center
09:16PM 39.4450 -74.9250 227° Southwest 248 285 24,000  Level Washington Center
09:17PM 39.3953 -74.9900 225° Southwest 253 291 24,000  Level Washington Center
09:18PM 39.3414 -75.0575 224° Southwest 253 291 24,000  Level Washington Center
09:20PM 39.2875 -75.1331 227° Southwest 266 306 24,000  Level Washington Center
09:20PM 39.2314 -75.2003 223° Southwest 278 320 24,000  Level Washington Center
09:21PM 39.1775 -75.2703 225° Southwest 278 320 24,000  Level Washington Center
09:23PM 39.1236 -75.3400 225° Southwest 278 320 24,000  Level Washington Center
09:23PM 39.0675 -75.4097 224° Southwest 278 320 24,000  Level Washington Center
09:24PM 39.0133 -75.4819 226° Southwest 278 320 24,000  Level Washington Center
09:25PM 38.9569 -75.5542 225° Southwest 278 320 24,000  Level Washington Center
09:26PM 38.9028 -75.6264 226° Southwest 278 320 24,000  Level Washington Center
09:27PM 38.8528 -75.7036 230° Southwest 278 320 24,000  Level Washington Center
09:28PM 38.7881 -75.7622 215° Southwest 283 326 24,000  Level Washington Center
09:30PM 38.7233 -75.8231 216° Southwest 288 331 24,000  Level Washington Center
09:31PM 38.6608 -75.8867 218° Southwest 293 337 24,000  Level Washington Center
09:32PM 38.5939 -75.9450 214° Southwest 293 337 24,000  Level Washington Center
09:32PM 38.5269 -76.0003 213° Southwest 293 337 24,000 -60 Level Washington Center
09:33PM 38.4619 -76.0636 217° Southwest 293 337 23,900 -540 Descending Washington Center
09:35PM 38.3950 -76.1269 217° Southwest 299 344 23,000 -960 Descending Washington Center
09:35PM 38.3217 -76.2006 218° Southwest 304 350 22,000 -540 Descending Washington Center
09:36PM 38.2631 -76.2475 212° Southwest 294 338 22,000  Level Washington Center
09:37PM 38.2003 -76.3131 219° Southwest 294 338 22,000  Level Washington Center
09:38PM 38.1353 -76.3731 216° Southwest 294 338 22,000  Level Washington Center
09:39PM 38.0703 -76.4331 216° Southwest 294 338 22,000  Level Washington Center
09:40PM 38.0050 -76.4956 217° Southwest 294 338 22,000  Level Washington Center
09:41PM 37.9400 -76.5556 216° Southwest 294 338 22,000  Level Washington Center
09:42PM 37.8769 -76.6153 217° Southwest 294 338 22,000  Level Washington Center
09:44PM 37.8097 -76.6747 215° Southwest 294 338 22,000  Level Washington Center
09:44PM 37.7464 -76.7342 217° Southwest 294 338 22,000  Level Washington Center
09:45PM 37.6728 -76.8014 216° Southwest 294 338 22,000  Level Washington Center
09:47PM 37.6075 -76.8631 217° Southwest 294 338 22,000  Level Washington Center
09:47PM 37.5403 -76.9222 215° Southwest 294 338 22,000  Level Washington Center
09:49PM 37.4811 -76.9789 217° Southwest 294 338 22,000  Level Washington Center
09:50PM 37.4072 -77.0456 216° Southwest 301 346 22,000 -120 Level Washington Center
09:50PM 37.3461 -77.1017 216° Southwest 296 341 21,800 -600 Descending Washington Center
09:51PM 37.2744 -77.1553 211° Southwest 296 341 20,900 -900 Descending Washington Center
09:53PM 37.1989 -77.2058 208° Southwest 301 346 20,000 -480 Descending Washington Center
09:53PM 37.1314 -77.2592 212° Southwest 301 346 20,000  Level Washington Center
09:55PM 37.0678 -77.3203 217° Southwest 295 339 20,000  Level Washington Center
09:55PM 37.0044 -77.3811 217° Southwest 295 339 20,000  Level Washington Center
09:56PM 36.9408 -77.4422 218° Southwest 295 339 20,000  Level Washington Center
09:58PM 36.8772 -77.5056 219° Southwest 295 339 20,000  Level Washington Center
09:59PM 36.8075 -77.5686 216° Southwest 295 339 20,000  Level Washington Center
09:59PM 36.7439 -77.6292 217° Southwest 295 339 20,000  Level Washington Center
10:00PM 36.6758 -77.6922 217° Southwest 295 339 20,000  Level Washington Center
10:02PM 36.6122 -77.7553 219° Southwest 295 339 20,000  Level Washington Center
10:02PM 36.5444 -77.8181 217° Southwest 295 339 20,000 -600 Level Washington Center
10:03PM 36.4764 -77.8831 218° Southwest 300 345 18,900 -1,740 Descending Washington Center
10:05PM 36.3978 -77.9583 218° Southwest 318 366 16,500 -2,340 Descending Washington Center
10:05PM 36.3764 -77.9756 213° Southwest 331 381 15,900 -2,160 Descending Washington Center
10:05PM 36.3572 -77.9931 216° Southwest 325 374 15,300 -1,860 Descending Washington Center
10:05PM 36.3297 -78.0206 219° Southwest 323 372 14,600 -1,920 Descending Washington Center
10:06PM 36.2872 -78.0581 215° Southwest 302 348 13,400 -2,040 Descending Washington Center
10:06PM 36.2614 -78.0908 226° Southwest 323 372 12,600 -2,040 Descending Washington Center
10:07PM 36.2375 -78.1414 240° Southwest 304 350 11,400 -2,040 Descending Washington Center
10:08PM 36.2200 -78.1794 240° Southwest 312 359 10,500 -1,380 Descending Washington Center
10:08PM 36.1961 -78.2250 237° Southwest 280 322 10,000 -720 Descending Washington Center
10:09PM 36.1869 -78.2506 246° West 278 320 9,800 -480 Descending Washington Center
10:09PM 36.1567 -78.3008 233° Southwest 233 268 9,500 -420 Descending Washington Center
10:09PM 36.1458 -78.3261 242° Southwest 253 291 9,400 -300 Descending Washington Center
10:10PM 36.1175 -78.3792 237° Southwest 247 284 9,200 -420 Descending Washington Center
10:10PM 36.1128 -78.3944 249° West 253 291 9,000 -1,380 Descending Washington Center
10:11PM 36.0822 -78.4525 237° Southwest 251 289 7,800 -1,500 Descending Washington Center
10:12PM 36.0756 -78.4728 248° West 248 285 7,500 -1,500 Descending Washington Center
10:12PM 36.0494 -78.5181 235° Southwest 225 259 6,300 -1,560 Descending Washington Center
10:12PM 36.0428 -78.5333 242° Southwest 241 277 6,000 -1,500 Descending Washington Center
10:13PM 36.0144 -78.5861 236° Southwest 234 269 4,800 -1,620 Descending Washington Center
10:13PM 36.0078 -78.6014 242° Southwest 241 277 4,400 -1,680 Descending Washington Center
10:14PM 35.9833 -78.6517 239° Southwest 240 276 3,300 -1,500 Descending Washington Center
10:15PM 35.9747 -78.6694 239° Southwest 241 277 2,900 -1,080 Descending Washington Center